• Join FlightAware (Why Join?)
  • Login
  • US Flag 
07:45PM EDT


 

Airport Tracker/Info


-or-


 

Live Flight TrackerFlight Track Log ✈ UAL1177 ✈ 13-May-2013 ✈ KPIT - KDEN

Flight Track Log - Related Links

Times and Time Zones

All times are in EDT time to prevent confusion due to time zone crossing. See the UAL1177 flight status page for this flight to view local times or setup timezone preferences in your user account.

Time Position Orientation Groundspeed Altitude Reporting Facility
EDT Latitude Longitude Course Direction KTS MPH feet Rate Location/Type
05:02PM 40.5712 -80.6438 282° West  Level FlightAware Approximate
05:03PM 40.6008 -80.7863 288° West  Level FlightAware Approximate
05:04PM 40.6323 -80.9283 285° West  Level FlightAware Approximate
05:05PM 40.6545 -81.0726 285° West  Level FlightAware Approximate
05:05PM 40.6140 -80.8370 285° West 339 390 15,900  Level FlightAware
05:06PM 40.6320 -80.9230 285° West 347 399 17,600 2,400 Climbing FlightAware
05:07PM 40.6530 -81.0180 286° West 352 405 19,300 2,220 Climbing FlightAware
05:07PM 40.6700 -81.0970 286° West 353 406 20,800 2,160 Climbing FlightAware
05:08PM 40.6880 -81.1820 286° West 356 410 22,200 1,920 Climbing FlightAware
05:09PM 40.7060 -81.2670 286° West 361 415 23,400 1,740 Climbing FlightAware
05:10PM 40.7240 -81.3620 284° West 367 422 24,700 1,560 Climbing FlightAware
05:10PM 40.7400 -81.4630 282° West 376 433 25,800 1,320 Climbing FlightAware
05:11PM 40.7540 -81.5530 282° West 383 441 26,600 1,260 Climbing FlightAware
05:12PM 40.7620 -81.6490 276° West 398 458 27,500 1,200 Climbing FlightAware
05:12PM 40.7700 -81.7570 276° West 404 465 28,300 1,020 Climbing FlightAware
05:13PM 40.7770 -81.8600 275° West 410 472 29,000 960 Climbing FlightAware
05:14PM 40.7850 -81.9570 276° West 416 479 29,600 1,200 Climbing FlightAware
05:14PM 40.7930 -82.0730 275° West 414 476 30,700 1,380 Climbing FlightAware
05:15PM 40.8000 -82.1710 275° West 410 472 31,600 960 Climbing FlightAware
05:16PM 40.8070 -82.2740 275° West 409 471 32,100 960 Climbing FlightAware
05:17PM 40.8150 -82.3810 276° West 406 467 33,000 1,020 Climbing FlightAware
05:17PM 40.8220 -82.4830 275° West 409 471 33,500 660 Climbing FlightAware
05:18PM 40.8290 -82.5890 275° West 412 474 34,000 300 Climbing FlightAware
05:19PM 40.8360 -82.6940 275° West 412 474 34,000  Level FlightAware
05:19PM 40.8430 -82.8000 275° West 412 474 34,000  Level FlightAware
05:20PM 40.8500 -82.8940 276° West 412 474 34,000  Level FlightAware
05:21PM 40.8570 -83.0040 275° West 412 474 34,000  Level FlightAware
05:21PM 40.8640 -83.1180 275° West 412 474 34,000  Level FlightAware
05:22PM 40.8700 -83.2130 275° West 414 476 34,000  Level FlightAware
05:23PM 40.8780 -83.3360 275° West 414 476 34,000  Level FlightAware
05:24PM 40.8840 -83.4370 275° West 416 479 34,000  Level FlightAware
05:24PM 40.8900 -83.5440 274° West 418 481 34,000  Level FlightAware
05:25PM 40.8970 -83.6510 275° West 418 481 34,000  Level FlightAware
05:26PM 40.9020 -83.7510 274° West 418 481 34,000  Level FlightAware
05:26PM 40.9090 -83.8640 275° West 418 481 34,000  Level FlightAware
05:27PM 40.9150 -83.9660 274° West 418 481 34,000  Level FlightAware
05:28PM 40.9210 -84.0690 274° West 417 480 34,000  Level FlightAware
05:28PM 40.9270 -84.1800 274° West 417 480 34,000  Level FlightAware
05:29PM 40.9320 -84.2830 274° West 416 479 34,000  Level FlightAware
05:30PM 40.9370 -84.3820 274° West 415 478 34,000  Level FlightAware
05:31PM 40.9430 -84.4990 274° West 414 476 34,000  Level FlightAware
05:31PM 40.9490 -84.6000 275° West 413 475 34,000  Level FlightAware
05:32PM 40.9540 -84.7010 274° West 413 475 34,000  Level FlightAware
05:33PM 40.9590 -84.8120 273° West 413 475 34,000  Level FlightAware
05:33PM 40.9640 -84.9130 274° West 413 475 34,000  Level FlightAware
05:34PM 40.9690 -85.0270 273° West 413 475 34,000  Level FlightAware
05:35PM 40.9740 -85.1310 274° West 415 478 34,000  Level FlightAware
05:35PM 40.9790 -85.2330 274° West 416 479 34,000  Level FlightAware
05:36PM 40.9840 -85.3420 274° West 416 479 34,000  Level FlightAware
05:37PM 40.9880 -85.4490 273° West 416 479 34,000  Level FlightAware
05:38PM 40.9930 -85.5610 273° West 416 479 34,000  Level FlightAware
05:38PM 40.9970 -85.6600 273° West 416 479 34,000  Level FlightAware
05:39PM 41.0010 -85.7530 273° West 416 479 34,000  Level FlightAware
05:40PM 41.0060 -85.8690 273° West 415 478 34,000  Level FlightAware
05:40PM 41.0100 -85.9770 273° West 414 476 34,000  Level FlightAware
05:41PM 41.0140 -86.0770 273° West 414 476 34,000  Level FlightAware
05:42PM 41.0180 -86.1910 273° West 414 476 34,000  Level FlightAware
05:42PM 41.0220 -86.3070 273° West 414 476 34,000  Level FlightAware
05:43PM 41.0250 -86.3950 273° West 415 478 34,000  Level FlightAware
05:44PM 41.0290 -86.5060 273° West 416 479 34,000  Level FlightAware
05:45PM 41.0330 -86.6170 273° West 416 479 34,000  Level FlightAware
05:45PM 41.0360 -86.7230 272° West 416 479 34,000  Level FlightAware
05:46PM 41.0400 -86.8430 273° West 416 479 34,000  Level FlightAware
05:47PM 41.0430 -86.9370 272° West 415 478 34,000  Level FlightAware
05:47PM 41.0460 -87.0390 272° West 415 478 34,000  Level FlightAware
05:48PM 41.0500 -87.1570 273° West 416 479 34,000  Level FlightAware
05:49PM 41.0520 -87.2560 272° West 416 479 34,000  Level FlightAware
05:49PM 41.0550 -87.3700 272° West 418 481 34,000 300 Level FlightAware
05:50PM 41.0580 -87.4730 272° West 422 486 34,500 780 Climbing FlightAware
05:51PM 41.0610 -87.5780 272° West 421 484 35,100 840 Climbing FlightAware
05:52PM 41.0630 -87.6910 271° West 421 484 35,700 600 Climbing FlightAware
05:52PM 41.0660 -87.7940 272° West 424 488 36,000 180 Climbing FlightAware
05:53PM 41.0690 -87.9160 272° West 425 489 36,000  Level FlightAware
05:54PM 41.0710 -88.0150 272° West 425 489 36,000  Level FlightAware
05:54PM 41.0730 -88.1220 271° West 424 488 36,000  Level FlightAware
05:55PM 41.0750 -88.2350 271° West 423 487 36,000  Level FlightAware
05:56PM 41.0770 -88.3370 272° West 423 487 36,000  Level FlightAware
05:56PM 41.0790 -88.4420 271° West 422 486 36,000  Level FlightAware
05:57PM 41.0810 -88.5620 271° West 422 486 36,000  Level FlightAware
05:58PM 41.0820 -88.6660 271° West 422 486 36,000  Level FlightAware
05:59PM 41.0840 -88.7830 271° West 423 487 36,000  Level FlightAware
05:59PM 41.0860 -88.8840 272° West 424 488 36,000  Level FlightAware
06:00PM 41.0870 -89.0030 271° West 426 490 36,000  Level FlightAware
06:01PM 41.0880 -89.1050 271° West 427 491 36,000  Level FlightAware
06:01PM 41.0900 -89.2100 271° West 428 493 36,000  Level FlightAware
06:02PM 41.0910 -89.3280 271° West 429 494 36,000  Level FlightAware
06:03PM 41.0920 -89.4300 271° West 429 494 36,000  Level FlightAware
06:03PM 41.0930 -89.5450 271° West 429 494 36,000  Level FlightAware
06:04PM 41.0930 -89.6510 270° West 429 494 36,000  Level FlightAware
06:05PM 41.0940 -89.7590 271° West 429 494 36,000  Level FlightAware
06:06PM 41.0950 -89.8780 271° West 429 494 36,000  Level FlightAware
06:06PM 41.0950 -89.9840 270° West 428 493 36,000  Level FlightAware
06:07PM 41.0960 -90.0980 271° West 427 491 36,000  Level FlightAware
06:08PM 41.0960 -90.2020 270° West 425 489 36,000  Level FlightAware
06:08PM 41.0960 -90.2890 270° West 424 488 36,000  Level FlightAware
06:09PM 41.0960 -90.4200 270° West 424 488 36,000  Level FlightAware
06:10PM 41.0960 -90.5310 270° West 424 488 36,000  Level FlightAware
06:10PM 41.0960 -90.6330 270° West 424 488 36,000  Level FlightAware
06:11PM 41.0960 -90.7360 270° West 425 489 36,000  Level FlightAware
06:12PM 41.0950 -90.8480 269° West 426 490 36,000  Level FlightAware
06:13PM 41.0950 -90.9690 270° West 427 491 36,000  Level FlightAware
06:13PM 41.0940 -91.1130 270° West 427 491 36,000  Level FlightAware
06:14PM 41.0930 -91.2130 269° West 427 491 36,000  Level FlightAware
06:15PM 41.0930 -91.3370 270° West 426 490 36,000  Level FlightAware
06:15PM 41.0920 -91.4190 269° West 426 490 36,000  Level FlightAware
06:16PM 41.0910 -91.5460 269° West 428 493 36,000  Level FlightAware
06:17PM 41.0890 -91.7020 269° West 430 495 36,000  Level FlightAware
06:18PM 41.0880 -91.8070 269° West 431 496 36,000  Level FlightAware
06:19PM 41.0860 -91.9480 269° West 432 497 36,000  Level FlightAware
06:20PM 41.0840 -92.1110 269° West 432 497 36,000  Level FlightAware
06:20PM 41.0820 -92.2110 269° West 432 497 36,000  Level FlightAware
06:23PM 41.0770 -92.5580 269° West 430 495 36,000  Level FlightAware
06:23PM 41.0750 -92.6620 269° West 429 494 36,000  Level FlightAware
06:24PM 41.0720 -92.7690 268° West 429 494 36,000  Level FlightAware
06:25PM 41.0700 -92.8870 269° West 429 494 36,000  Level FlightAware
06:25PM 41.0680 -92.9930 269° West 429 494 36,000  Level FlightAware
06:26PM 41.0650 -93.0980 268° West 430 495 36,000  Level FlightAware
06:27PM 41.0630 -93.1850 268° West 431 496 36,000  Level FlightAware
06:27PM 41.0600 -93.3200 268° West 432 497 36,000  Level FlightAware
06:28PM 41.0570 -93.4460 268° West 432 497 36,000  Level FlightAware
06:29PM 41.0540 -93.5630 268° West 433 498 36,000  Level FlightAware
06:30PM 41.0510 -93.6540 268° West 433 498 36,000  Level FlightAware
06:30PM 41.0490 -93.7440 268° West 433 498 36,000  Level FlightAware
06:31PM 41.0430 -93.9280 268° West 438 504 36,000  Level FlightAware
06:32PM 41.0390 -94.0640 268° West 437 503 36,000  Level FlightAware
06:33PM 41.0350 -94.1860 268° West 436 502 36,000  Level FlightAware
06:34PM 41.0310 -94.3060 268° West 436 502 36,000  Level FlightAware
06:35PM 41.0260 -94.4200 267° West 436 502 36,000  Level FlightAware
06:35PM 41.0230 -94.5110 268° West 436 502 36,000  Level FlightAware
06:36PM 41.0190 -94.6020 267° West 436 502 36,000  Level FlightAware
06:37PM 41.0150 -94.6920 267° West 436 502 36,000  Level FlightAware
06:37PM 41.0120 -94.7830 268° West 436 502 36,000  Level FlightAware
06:38PM 41.0080 -94.8740 267° West 436 502 36,000  Level FlightAware
06:39PM 41.0040 -94.9870 267° West 436 502 36,000  Level FlightAware
06:39PM 41.0000 -95.0780 267° West 436 502 36,000  Level FlightAware
06:40PM 40.9970 -95.1690 268° West 436 502 36,000  Level FlightAware
06:41PM 40.9930 -95.2600 267° West 436 502 36,000  Level FlightAware
06:41PM 40.9890 -95.3500 267° West 436 502 36,000  Level FlightAware
06:42PM 40.9850 -95.4640 267° West 436 502 36,000  Level FlightAware
06:43PM 40.9810 -95.5540 267° West 436 502 36,000  Level FlightAware
06:45PM 40.9570 -96.0930 267° West 36,000  Level FlightAware
06:46PM 40.9494 -96.2303 267° West 435 501 36,000  Level Minneapolis Center
06:47PM 40.9417 -96.3903 266° West 434 499 36,000  Level Minneapolis Center
06:48PM 40.9328 -96.5511 266° West 435 501 36,000  Level Minneapolis Center
06:49PM 40.9219 -96.7450 266° West 438 504 36,000  Level Minneapolis Center
06:50PM 40.8931 -96.9036 257° West 443 510 36,000  Level Minneapolis Center
06:51PM 40.8642 -97.0644 257° West 449 517 36,000  Level Minneapolis Center
06:52PM 40.8339 -97.2236 256° West 448 516 36,000  Level Minneapolis Center
06:53PM 40.8017 -97.3956 256° West 449 517 36,000  Level Minneapolis Center
06:54PM 40.7719 -97.5561 256° West 449 517 36,000  Level Minneapolis Center
06:55PM 40.7414 -97.7169 256° West 450 518 36,000  Level Minneapolis Center
06:56PM 40.7108 -97.8758 256° West 448 516 36,000  Level Minneapolis Center
06:57PM 40.6797 -98.0358 256° West 449 517 36,000  Level Minneapolis Center
06:58PM 40.6433 -98.2281 256° West 448 516 36,000  Level Minneapolis Center
06:59PM 40.6119 -98.3883 256° West 449 517 36,000  Level Minneapolis Center
07:00PM 40.6142 -98.5506 271° West 445 512 36,000  Level Minneapolis Center
07:01PM 40.6292 -98.7122 277° West 442 509 36,000  Level Minneapolis Center
07:02PM 40.6433 -98.8736 277° West 442 509 36,000  Level Minneapolis Center
07:03PM 40.6564 -99.0358 276° West 442 509 36,000  Level Minneapolis Center
07:05PM 40.6767 -99.2600 277° West 439 505 36,000  Level Denver Center
07:06PM 40.6897 -99.4206 276° West 438 504 36,000  Level Denver Center
07:07PM 40.7039 -99.5806 277° West 439 505 36,000  Level Denver Center
07:08PM 40.7161 -99.7417 276° West 440 506 36,000  Level Denver Center
07:09PM 40.7294 -99.9133 276° West 444 511 36,000  Level Denver Center
07:10PM 40.7447 -100.0953 276° West 447 514 36,000  Level Denver Center
07:16PM 40.7172 -101.0800 276° West 453 521 36,000  Level FlightAware ADS-B
07:16PM 40.7029 -101.1610 257° West 454 522 36,000  Level FlightAware ADS-B
07:17PM 40.6882 -101.2450 257° West 455 524 36,000  Level FlightAware ADS-B
07:17PM 40.6740 -101.3260 257° West 455 524 36,000  Level FlightAware ADS-B
07:18PM 40.6598 -101.4080 257° West 455 524 36,000  Level FlightAware ADS-B
07:18PM 40.6455 -101.4890 257° West 454 522 36,000  Level FlightAware ADS-B
07:19PM 40.6309 -101.5700 257° West 455 524 36,000  Level FlightAware ADS-B
07:19PM 40.6161 -101.6530 257° West 456 525 36,000  Level FlightAware ADS-B
07:20PM 40.5995 -101.7450 257° West 456 525 36,000  Level FlightAware ADS-B
07:21PM 40.5847 -101.8260 256° West 456 525 36,000  Level FlightAware ADS-B
07:21PM 40.5699 -101.9070 257° West 456 525 36,000  Level FlightAware ADS-B
07:22PM 40.5547 -101.9910 257° West 458 527 36,000  Level FlightAware ADS-B
07:22PM 40.5396 -102.0730 256° West 458 527 36,000  Level FlightAware ADS-B
07:23PM 40.5244 -102.1540 256° West 459 528 36,000  Level FlightAware ADS-B
07:23PM 40.5094 -102.2360 256° West 458 527 36,000  Level FlightAware ADS-B
07:24PM 40.4935 -102.3220 256° West 458 527 36,000  Level FlightAware ADS-B
07:24PM 40.4775 -102.4090 256° West 457 526 36,000  Level FlightAware ADS-B
07:25PM 40.4623 -102.4910 256° West 457 526 36,000  Level FlightAware ADS-B
07:25PM 40.4473 -102.5720 256° West 457 526 36,000 -1,140 Level FlightAware ADS-B
07:26PM 40.4319 -102.6540 256° West 456 525 34,900 -2,700 Descending FlightAware ADS-B
07:26PM 40.4168 -102.7350 256° West 463 533 33,300 -3,000 Descending FlightAware ADS-B
07:27PM 40.4007 -102.8200 256° West 462 532 31,900 -2,460 Descending FlightAware ADS-B
07:27PM 40.3855 -102.9010 256° West 454 522 30,800 -2,220 Descending FlightAware ADS-B
07:28PM 40.3703 -102.9810 256° West 446 513 29,700 -2,100 Descending FlightAware ADS-B
07:28PM 40.3553 -103.0610 256° West 437 503 28,700 -2,100 Descending FlightAware ADS-B
07:29PM 40.3405 -103.1370 256° West 428 493 27,600 -2,100 Descending FlightAware ADS-B
07:29PM 40.3261 -103.2120 256° West 420 483 26,600 -1,980 Descending FlightAware ADS-B
07:30PM 40.3119 -103.2860 256° West 414 476 25,600 -2,100 Descending FlightAware ADS-B
07:30PM 40.2976 -103.3590 256° West 408 470 24,500 -2,100 Descending FlightAware ADS-B
07:31PM 40.2837 -103.4300 256° West 402 463 23,500 -2,040 Descending FlightAware ADS-B
07:31PM 40.2700 -103.5000 256° West 396 456 22,500 -2,100 Descending FlightAware ADS-B
07:32PM 40.2562 -103.5710 256° West 390 449 21,400 -1,800 Descending FlightAware ADS-B
07:32PM 40.2426 -103.6400 256° West 377 434 20,700 -1,560 Descending FlightAware ADS-B
07:33PM 40.2293 -103.7070 255° West 370 426 19,800 -1,800 Descending FlightAware ADS-B
07:33PM 40.2164 -103.7720 255° West 364 419 18,900 -1,380 Descending FlightAware ADS-B
07:34PM 40.2054 -103.8280 256° West 349 402 18,500 -900 Descending FlightAware ADS-B
07:34PM 40.2034 -103.8440 261° West 340 391 18,400 -960 Descending FlightAware ADS-B
07:34PM 40.2025 -103.8670 267° West 332 382 18,200 -1,440 Descending FlightAware ADS-B
07:34PM 40.2030 -103.8800 273° West 329 379 18,000 -1,680 Descending FlightAware ADS-B
07:35PM 40.2094 -103.9450 277° West 321 369 17,100 -1,740 Descending FlightAware ADS-B
07:35PM 40.2148 -104.0030 277° West 318 366 16,200 -1,800 Descending FlightAware ADS-B
07:36PM 40.2204 -104.0610 277° West 320 368 15,300 -1,680 Descending FlightAware ADS-B
07:36PM 40.2258 -104.1200 277° West 317 365 14,500 -1,620 Descending FlightAware ADS-B
07:37PM 40.2298 -104.1630 277° West 313 360 13,900 -1,500 Descending FlightAware ADS-B
07:37PM 40.2350 -104.2200 277° West 309 356 13,200 -1,500 Descending FlightAware ADS-B
07:38PM 40.2399 -104.2750 277° West 306 352 12,400 -1,200 Descending FlightAware ADS-B
07:38PM 40.2451 -104.3290 277° West 289 333 12,000 -660 Descending FlightAware ADS-B
07:39PM 40.2494 -104.3720 277° West 276 318 11,800 -600 Descending FlightAware ADS-B
07:39PM 40.2499 -104.3800 275° West 273 314 11,700 -720 Descending FlightAware ADS-B
07:39PM 40.2497 -104.3870 268° West 270 311 11,700  Level FlightAware ADS-B
07:39PM 40.2490 -104.3930 261° West 268 308 11,700 -900 Level FlightAware ADS-B
07:39PM 40.2478 -104.3990 255° West 266 306 11,600 -1,500 Descending FlightAware ADS-B
07:39PM 40.2459 -104.4050 247° West 266 306 11,500 -780 Descending FlightAware ADS-B
07:39PM 40.2443 -104.4090 242° Southwest 264 304 11,500 -900 Level FlightAware ADS-B
07:39PM 40.2336 -104.4340 241° Southwest 258 297 11,200 -1,020 Descending FlightAware ADS-B
07:40PM 40.2155 -104.4740 239° Southwest 254 292 10,700 -1,020 Descending FlightAware ADS-B
07:40PM 40.1970 -104.5130 238° Southwest 249 287 10,200 -1,020 Descending FlightAware ADS-B
07:41PM 40.1861 -104.5370 239° Southwest 246 283 9,900 -1,140 Descending FlightAware ADS-B
07:41PM 40.1838 -104.5410 233° Southwest 245 282 9,800 -1,500 Descending FlightAware ADS-B
07:41PM 40.1807 -104.5450 225° Southwest 246 283 9,700 -1,500 Descending FlightAware ADS-B
07:41PM 40.1775 -104.5490 224° Southwest 245 282 9,600 -900 Descending FlightAware ADS-B
07:41PM 40.1743 -104.5520 216° Southwest 246 283 9,600 -720 Level FlightAware ADS-B
07:41PM 40.1687 -104.5560 209° Southwest 245 282 9,500 -1,200 Descending FlightAware ADS-B
07:41PM 40.1535 -104.5670 209° Southwest 245 282 9,200 -1,080 Descending FlightAware ADS-B
07:41PM 40.1354 -104.5800 209° Southwest 242 278 8,900 -1,080 Descending FlightAware ADS-B
07:42PM 40.1204 -104.5910 209° Southwest 241 277 8,600 -1,440 Descending FlightAware ADS-B
07:42PM 40.1056 -104.6020 210° Southwest 243 280 8,200 -1,440 Descending FlightAware ADS-B
07:42PM 40.0908 -104.6130 210° Southwest 242 278 7,900 -1,020 Descending FlightAware ADS-B
07:42PM 40.0761 -104.6240 210° Southwest 237 273 7,700 -660 Descending FlightAware ADS-B
07:43PM 40.0637 -104.6330 209° Southwest 231 266 7,600 -720 Descending FlightAware ADS-B
07:43PM 40.0513 -104.6430 212° Southwest 220 253 7,400 -720 Descending FlightAware ADS-B
07:43PM 40.0417 -104.6500 209° Southwest 213 245 7,300 -840 Descending FlightAware ADS-B
07:43PM 40.0384 -104.6520 205° Southwest 212 244 7,200 -1,140 Descending FlightAware ADS-B
07:43PM 40.0319 -104.6560 205° Southwest 211 243 7,100 -840 Descending FlightAware ADS-B
07:44PM 40.0193 -104.6660 211° Southwest 202 232 6,900 -720 Descending FlightAware ADS-B
07:44PM 40.0099 -104.6730 210° Southwest 196 226 6,800 -240 Descending FlightAware ADS-B
07:44PM 39.9975 -104.6830 212° Southwest 187 215 6,800  Level FlightAware ADS-B
07:44PM 39.9946 -104.6840 195° South 186 214 6,800  Level FlightAware ADS-B
07:44PM 39.9919 -104.6860 210° Southwest 186 214 6,800  Level FlightAware ADS-B
07:44PM 39.9880 -104.6870 191° South 185 213 6,800 -600 Level FlightAware ADS-B
07:44PM 39.9826 -104.6870 180° South 186 214 6,700 -1,380 Descending FlightAware ADS-B
07:44PM 39.9800 -104.6870 180° South 188 216 6,600 -1,140 Descending FlightAware ADS-B
07:45PM 39.9727 -104.6860 174° South 182 209 6,500 -960 Descending FlightAware ADS-B
07:45PM 39.9687 -104.6860 180° South 178 205 6,400 -840 Descending FlightAware ADS-B
07:45PM 39.9611 -104.6860 180° South 171 197 6,300 -600 Descending FlightAware ADS-B
07:45PM 39.9520 -104.6860 180° South 171 197 6,200 -600 Descending FlightAware ADS-B
07:45PM 39.9455 -104.6860 180° South 171 197 6,100 -720 Descending FlightAware ADS-B
07:45PM 39.9392 -104.6860 180° South 167 192 6,000 -1,080 Descending FlightAware ADS-B
07:45PM 39.9272 -104.6860 180° South 168 193 5,700 -900 Descending FlightAware ADS-B
07:46PM 39.9182 -104.6870 185° South 165 190 5,600 -840 Descending FlightAware ADS-B
07:46PM 39.9099 -104.6870 180° South 162 186 5,400 -960 Descending FlightAware ADS-B
07:46PM 39.9035 -104.6870 180° South 166 191 5,300 -480 Descending FlightAware ADS-B
07:46PM 39.8892 -104.6870 180° South 168 193 5,200 -360 Descending FlightAware ADS-B